sensor_id;sensor_type;location;lat;lon;timestamp;P1;durP1;ratioP1;P2;durP2;ratioP2
19891;SDS011;10108;50.142;8.724;2023-06-10T00:02:11;15.52;;;11.00;;
19891;SDS011;10108;50.142;8.724;2023-06-10T00:04:37;14.98;;;11.07;;
19891;SDS011;10108;50.142;8.724;2023-06-10T00:07:04;15.15;;;10.98;;
19891;SDS011;10108;50.142;8.724;2023-06-10T00:09:34;13.57;;;11.00;;
19891;SDS011;10108;50.142;8.724;2023-06-10T00:12:03;14.60;;;11.02;;
19891;SDS011;10108;50.142;8.724;2023-06-10T00:14:30;16.33;;;11.30;;
19891;SDS011;10108;50.142;8.724;2023-06-10T00:16:56;17.38;;;11.77;;
19891;SDS011;10108;50.142;8.724;2023-06-10T00:19:23;14.75;;;11.25;;
19891;SDS011;10108;50.142;8.724;2023-06-10T00:21:56;16.40;;;11.25;;
19891;SDS011;10108;50.142;8.724;2023-06-10T00:24:22;15.45;;;11.43;;
19891;SDS011;10108;50.142;8.724;2023-06-10T00:26:48;15.60;;;11.27;;
19891;SDS011;10108;50.142;8.724;2023-06-10T00:29:15;14.88;;;11.30;;
19891;SDS011;10108;50.142;8.724;2023-06-10T00:31:41;15.50;;;11.10;;
19891;SDS011;10108;50.142;8.724;2023-06-10T00:34:12;14.27;;;11.02;;
19891;SDS011;10108;50.142;8.724;2023-06-10T00:36:38;15.85;;;10.80;;
19891;SDS011;10108;50.142;8.724;2023-06-10T00:39:04;15.43;;;11.80;;
19891;SDS011;10108;50.142;8.724;2023-06-10T00:41:30;14.98;;;10.93;;
19891;SDS011;10108;50.142;8.724;2023-06-10T00:43:59;14.63;;;11.25;;
19891;SDS011;10108;50.142;8.724;2023-06-10T00:46:25;15.05;;;11.25;;
19891;SDS011;10108;50.142;8.724;2023-06-10T00:48:55;18.15;;;11.50;;
19891;SDS011;10108;50.142;8.724;2023-06-10T00:51:21;13.45;;;10.93;;
19891;SDS011;10108;50.142;8.724;2023-06-10T00:53:48;14.40;;;11.40;;
19891;SDS011;10108;50.142;8.724;2023-06-10T00:56:15;18.42;;;11.70;;
19891;SDS011;10108;50.142;8.724;2023-06-10T00:58:41;16.02;;;11.00;;
19891;SDS011;10108;50.142;8.724;2023-06-10T01:01:07;16.52;;;11.05;;
19891;SDS011;10108;50.142;8.724;2023-06-10T01:03:36;16.70;;;11.32;;
19891;SDS011;10108;50.142;8.724;2023-06-10T01:06:08;14.82;;;11.27;;
19891;SDS011;10108;50.142;8.724;2023-06-10T01:08:40;18.15;;;11.30;;
19891;SDS011;10108;50.142;8.724;2023-06-10T01:11:25;14.55;;;11.57;;
19891;SDS011;10108;50.142;8.724;2023-06-10T01:13:56;15.98;;;11.60;;
19891;SDS011;10108;50.142;8.724;2023-06-10T01:16:25;13.85;;;10.45;;
19891;SDS011;10108;50.142;8.724;2023-06-10T01:18:51;17.67;;;11.30;;
19891;SDS011;10108;50.142;8.724;2023-06-10T01:21:19;16.23;;;11.50;;
19891;SDS011;10108;50.142;8.724;2023-06-10T01:23:47;18.48;;;11.40;;
19891;SDS011;10108;50.142;8.724;2023-06-10T01:26:13;15.55;;;10.45;;
19891;SDS011;10108;50.142;8.724;2023-06-10T01:28:48;14.93;;;10.95;;
19891;SDS011;10108;50.142;8.724;2023-06-10T01:31:31;17.52;;;11.35;;
19891;SDS011;10108;50.142;8.724;2023-06-10T01:34:14;14.00;;;10.75;;
19891;SDS011;10108;50.142;8.724;2023-06-10T01:36:47;15.85;;;10.73;;
19891;SDS011;10108;50.142;8.724;2023-06-10T01:39:14;18.77;;;11.40;;
19891;SDS011;10108;50.142;8.724;2023-06-10T01:41:42;16.60;;;11.50;;
19891;SDS011;10108;50.142;8.724;2023-06-10T01:44:10;14.93;;;10.88;;
19891;SDS011;10108;50.142;8.724;2023-06-10T01:46:39;16.20;;;11.18;;
19891;SDS011;10108;50.142;8.724;2023-06-10T01:49:05;17.50;;;10.80;;
19891;SDS011;10108;50.142;8.724;2023-06-10T01:51:32;17.33;;;10.82;;
19891;SDS011;10108;50.142;8.724;2023-06-10T01:53:59;16.98;;;11.45;;
19891;SDS011;10108;50.142;8.724;2023-06-10T01:56:25;17.38;;;10.95;;
19891;SDS011;10108;50.142;8.724;2023-06-10T01:58:51;16.33;;;10.90;;
19891;SDS011;10108;50.142;8.724;2023-06-10T02:01:20;14.88;;;10.52;;
19891;SDS011;10108;50.142;8.724;2023-06-10T02:03:46;15.27;;;10.75;;
19891;SDS011;10108;50.142;8.724;2023-06-10T02:06:12;15.73;;;11.10;;
19891;SDS011;10108;50.142;8.724;2023-06-10T02:08:39;13.43;;;10.27;;
19891;SDS011;10108;50.142;8.724;2023-06-10T02:11:05;13.88;;;10.45;;
19891;SDS011;10108;50.142;8.724;2023-06-10T02:13:32;15.15;;;10.18;;
19891;SDS011;10108;50.142;8.724;2023-06-10T02:15:58;14.70;;;10.77;;
19891;SDS011;10108;50.142;8.724;2023-06-10T02:18:28;14.27;;;10.25;;
19891;SDS011;10108;50.142;8.724;2023-06-10T02:20:55;13.55;;;10.40;;
19891;SDS011;10108;50.142;8.724;2023-06-10T02:23:21;15.27;;;11.38;;
19891;SDS011;10108;50.142;8.724;2023-06-10T02:25:48;14.95;;;10.75;;
19891;SDS011;10108;50.142;8.724;2023-06-10T02:28:14;14.13;;;10.23;;
19891;SDS011;10108;50.142;8.724;2023-06-10T02:30:40;14.27;;;10.38;;
19891;SDS011;10108;50.142;8.724;2023-06-10T02:33:07;15.20;;;10.73;;
19891;SDS011;10108;50.142;8.724;2023-06-10T02:35:38;15.75;;;10.98;;
19891;SDS011;10108;50.142;8.724;2023-06-10T02:38:04;14.02;;;10.32;;
19891;SDS011;10108;50.142;8.724;2023-06-10T02:40:32;14.07;;;10.30;;
19891;SDS011;10108;50.142;8.724;2023-06-10T02:42:58;17.25;;;10.88;;
19891;SDS011;10108;50.142;8.724;2023-06-10T02:45:25;15.55;;;10.50;;
19891;SDS011;10108;50.142;8.724;2023-06-10T02:47:51;14.70;;;10.93;;
19891;SDS011;10108;50.142;8.724;2023-06-10T02:50:18;15.88;;;9.98;;
19891;SDS011;10108;50.142;8.724;2023-06-10T02:53:01;19.05;;;10.57;;
19891;SDS011;10108;50.142;8.724;2023-06-10T02:55:27;14.35;;;11.00;;
19891;SDS011;10108;50.142;8.724;2023-06-10T02:57:59;14.73;;;10.85;;
19891;SDS011;10108;50.142;8.724;2023-06-10T03:00:26;16.55;;;10.77;;
19891;SDS011;10108;50.142;8.724;2023-06-10T03:02:53;18.60;;;10.88;;
19891;SDS011;10108;50.142;8.724;2023-06-10T03:05:24;14.45;;;10.10;;
19891;SDS011;10108;50.142;8.724;2023-06-10T03:07:52;15.48;;;10.90;;
19891;SDS011;10108;50.142;8.724;2023-06-10T03:10:19;14.63;;;11.10;;
19891;SDS011;10108;50.142;8.724;2023-06-10T03:12:45;15.30;;;11.27;;
19891;SDS011;10108;50.142;8.724;2023-06-10T03:15:12;15.88;;;10.60;;
19891;SDS011;10108;50.142;8.724;2023-06-10T03:17:39;15.52;;;10.82;;
19891;SDS011;10108;50.142;8.724;2023-06-10T03:20:06;16.15;;;11.10;;
19891;SDS011;10108;50.142;8.724;2023-06-10T03:22:35;17.27;;;10.70;;
19891;SDS011;10108;50.142;8.724;2023-06-10T03:25:07;15.70;;;10.65;;
19891;SDS011;10108;50.142;8.724;2023-06-10T03:27:40;18.25;;;11.02;;
19891;SDS011;10108;50.142;8.724;2023-06-10T03:30:08;16.00;;;11.38;;
19891;SDS011;10108;50.142;8.724;2023-06-10T03:32:36;15.75;;;10.52;;
19891;SDS011;10108;50.142;8.724;2023-06-10T03:35:03;15.45;;;10.40;;
19891;SDS011;10108;50.142;8.724;2023-06-10T03:37:30;15.05;;;11.55;;
19891;SDS011;10108;50.142;8.724;2023-06-10T03:39:56;15.55;;;11.10;;
19891;SDS011;10108;50.142;8.724;2023-06-10T03:42:23;16.05;;;11.32;;
19891;SDS011;10108;50.142;8.724;2023-06-10T03:44:49;14.50;;;10.68;;
19891;SDS011;10108;50.142;8.724;2023-06-10T03:47:15;13.65;;;10.70;;
19891;SDS011;10108;50.142;8.724;2023-06-10T03:49:42;16.63;;;10.48;;
19891;SDS011;10108;50.142;8.724;2023-06-10T03:52:08;15.18;;;10.57;;
19891;SDS011;10108;50.142;8.724;2023-06-10T03:54:34;15.98;;;10.65;;
19891;SDS011;10108;50.142;8.724;2023-06-10T03:57:02;16.60;;;10.38;;
19891;SDS011;10108;50.142;8.724;2023-06-10T03:59:29;16.27;;;10.68;;
19891;SDS011;10108;50.142;8.724;2023-06-10T04:01:56;14.23;;;10.63;;
19891;SDS011;10108;50.142;8.724;2023-06-10T04:04:22;13.43;;;9.20;;
19891;SDS011;10108;50.142;8.724;2023-06-10T04:06:49;13.80;;;10.23;;
19891;SDS011;10108;50.142;8.724;2023-06-10T04:09:16;16.90;;;10.40;;
19891;SDS011;10108;50.142;8.724;2023-06-10T04:11:43;14.88;;;9.80;;
19891;SDS011;10108;50.142;8.724;2023-06-10T04:14:09;18.10;;;10.02;;
19891;SDS011;10108;50.142;8.724;2023-06-10T04:16:35;16.38;;;9.88;;
19891;SDS011;10108;50.142;8.724;2023-06-10T04:19:02;14.18;;;9.60;;
19891;SDS011;10108;50.142;8.724;2023-06-10T04:21:28;13.00;;;9.52;;
19891;SDS011;10108;50.142;8.724;2023-06-10T04:23:55;13.98;;;10.07;;
19891;SDS011;10108;50.142;8.724;2023-06-10T04:26:21;16.35;;;9.93;;
19891;SDS011;10108;50.142;8.724;2023-06-10T04:28:48;14.38;;;9.80;;
19891;SDS011;10108;50.142;8.724;2023-06-10T04:31:14;16.02;;;9.48;;
19891;SDS011;10108;50.142;8.724;2023-06-10T04:33:42;12.77;;;9.32;;
19891;SDS011;10108;50.142;8.724;2023-06-10T04:36:08;14.48;;;9.63;;
19891;SDS011;10108;50.142;8.724;2023-06-10T04:38:35;13.95;;;9.65;;
19891;SDS011;10108;50.142;8.724;2023-06-10T04:41:01;15.43;;;10.52;;
19891;SDS011;10108;50.142;8.724;2023-06-10T04:43:31;14.10;;;9.57;;
19891;SDS011;10108;50.142;8.724;2023-06-10T04:45:59;13.93;;;9.55;;
19891;SDS011;10108;50.142;8.724;2023-06-10T04:48:25;14.50;;;9.50;;
19891;SDS011;10108;50.142;8.724;2023-06-10T04:50:53;14.27;;;9.52;;
19891;SDS011;10108;50.142;8.724;2023-06-10T04:53:19;12.52;;;9.15;;
19891;SDS011;10108;50.142;8.724;2023-06-10T04:55:46;15.75;;;9.52;;
19891;SDS011;10108;50.142;8.724;2023-06-10T04:58:14;15.90;;;9.77;;
19891;SDS011;10108;50.142;8.724;2023-06-10T05:00:40;14.68;;;9.60;;
19891;SDS011;10108;50.142;8.724;2023-06-10T05:03:07;14.27;;;9.00;;
19891;SDS011;10108;50.142;8.724;2023-06-10T05:05:33;18.55;;;9.27;;
19891;SDS011;10108;50.142;8.724;2023-06-10T05:07:59;13.32;;;9.50;;
19891;SDS011;10108;50.142;8.724;2023-06-10T05:10:25;14.90;;;9.52;;
19891;SDS011;10108;50.142;8.724;2023-06-10T05:12:52;13.60;;;9.52;;
19891;SDS011;10108;50.142;8.724;2023-06-10T05:15:18;13.13;;;9.80;;
19891;SDS011;10108;50.142;8.724;2023-06-10T05:17:44;15.90;;;9.63;;
19891;SDS011;10108;50.142;8.724;2023-06-10T05:20:10;14.18;;;9.65;;
19891;SDS011;10108;50.142;8.724;2023-06-10T05:22:36;14.80;;;9.93;;
19891;SDS011;10108;50.142;8.724;2023-06-10T05:25:03;13.55;;;9.85;;
19891;SDS011;10108;50.142;8.724;2023-06-10T05:27:29;14.38;;;9.57;;
19891;SDS011;10108;50.142;8.724;2023-06-10T05:29:55;14.15;;;9.25;;
19891;SDS011;10108;50.142;8.724;2023-06-10T05:32:22;16.92;;;9.77;;
19891;SDS011;10108;50.142;8.724;2023-06-10T05:34:48;13.82;;;9.43;;
19891;SDS011;10108;50.142;8.724;2023-06-10T05:37:14;15.40;;;9.88;;
19891;SDS011;10108;50.142;8.724;2023-06-10T05:39:40;17.52;;;10.10;;
19891;SDS011;10108;50.142;8.724;2023-06-10T05:42:06;14.32;;;9.57;;
19891;SDS011;10108;50.142;8.724;2023-06-10T05:44:33;17.13;;;9.82;;
19891;SDS011;10108;50.142;8.724;2023-06-10T05:47:00;13.13;;;9.75;;
19891;SDS011;10108;50.142;8.724;2023-06-10T05:49:26;12.85;;;9.07;;
19891;SDS011;10108;50.142;8.724;2023-06-10T05:51:52;15.13;;;10.20;;
19891;SDS011;10108;50.142;8.724;2023-06-10T05:54:18;13.63;;;9.48;;
19891;SDS011;10108;50.142;8.724;2023-06-10T05:56:45;11.90;;;9.35;;
19891;SDS011;10108;50.142;8.724;2023-06-10T05:59:11;14.18;;;9.88;;
19891;SDS011;10108;50.142;8.724;2023-06-10T06:01:37;14.38;;;9.57;;
19891;SDS011;10108;50.142;8.724;2023-06-10T06:04:03;14.50;;;9.82;;
19891;SDS011;10108;50.142;8.724;2023-06-10T06:06:29;16.25;;;10.00;;
19891;SDS011;10108;50.142;8.724;2023-06-10T06:08:55;15.48;;;9.63;;
19891;SDS011;10108;50.142;8.724;2023-06-10T06:11:22;13.63;;;9.57;;
19891;SDS011;10108;50.142;8.724;2023-06-10T06:13:48;13.23;;;9.40;;
19891;SDS011;10108;50.142;8.724;2023-06-10T06:16:14;15.35;;;10.35;;
19891;SDS011;10108;50.142;8.724;2023-06-10T06:18:40;14.90;;;9.80;;
19891;SDS011;10108;50.142;8.724;2023-06-10T06:21:07;16.23;;;9.25;;
19891;SDS011;10108;50.142;8.724;2023-06-10T06:23:33;13.68;;;9.57;;
19891;SDS011;10108;50.142;8.724;2023-06-10T06:25:59;15.90;;;9.57;;
19891;SDS011;10108;50.142;8.724;2023-06-10T06:28:25;12.45;;;9.50;;
19891;SDS011;10108;50.142;8.724;2023-06-10T06:30:55;15.43;;;9.52;;
19891;SDS011;10108;50.142;8.724;2023-06-10T06:33:21;16.50;;;9.50;;
19891;SDS011;10108;50.142;8.724;2023-06-10T06:35:48;16.80;;;9.52;;
19891;SDS011;10108;50.142;8.724;2023-06-10T06:38:14;15.05;;;9.45;;
19891;SDS011;10108;50.142;8.724;2023-06-10T06:40:41;15.55;;;10.07;;
19891;SDS011;10108;50.142;8.724;2023-06-10T06:43:07;12.93;;;9.23;;
19891;SDS011;10108;50.142;8.724;2023-06-10T06:45:52;14.82;;;10.18;;
19891;SDS011;10108;50.142;8.724;2023-06-10T06:48:18;13.02;;;9.82;;
19891;SDS011;10108;50.142;8.724;2023-06-10T06:50:44;12.60;;;9.23;;
19891;SDS011;10108;50.142;8.724;2023-06-10T06:53:10;15.25;;;9.52;;
19891;SDS011;10108;50.142;8.724;2023-06-10T06:55:36;14.02;;;9.77;;
19891;SDS011;10108;50.142;8.724;2023-06-10T06:58:02;15.05;;;9.90;;
19891;SDS011;10108;50.142;8.724;2023-06-10T07:00:30;12.57;;;9.27;;
19891;SDS011;10108;50.142;8.724;2023-06-10T07:02:56;14.00;;;9.30;;
19891;SDS011;10108;50.142;8.724;2023-06-10T07:05:23;14.77;;;9.30;;
19891;SDS011;10108;50.142;8.724;2023-06-10T07:07:51;15.35;;;9.40;;
19891;SDS011;10108;50.142;8.724;2023-06-10T07:10:21;15.45;;;9.90;;
19891;SDS011;10108;50.142;8.724;2023-06-10T07:12:48;13.80;;;9.45;;
19891;SDS011;10108;50.142;8.724;2023-06-10T07:15:14;14.68;;;9.18;;
19891;SDS011;10108;50.142;8.724;2023-06-10T07:17:40;14.38;;;9.55;;
19891;SDS011;10108;50.142;8.724;2023-06-10T07:20:06;14.30;;;9.57;;
19891;SDS011;10108;50.142;8.724;2023-06-10T07:22:33;17.25;;;10.10;;
19891;SDS011;10108;50.142;8.724;2023-06-10T07:24:59;13.20;;;9.25;;
19891;SDS011;10108;50.142;8.724;2023-06-10T07:27:25;12.73;;;9.27;;
19891;SDS011;10108;50.142;8.724;2023-06-10T07:29:52;13.48;;;9.20;;
19891;SDS011;10108;50.142;8.724;2023-06-10T07:32:18;15.57;;;9.45;;
19891;SDS011;10108;50.142;8.724;2023-06-10T07:34:47;15.27;;;9.85;;
19891;SDS011;10108;50.142;8.724;2023-06-10T07:37:13;15.07;;;9.90;;
19891;SDS011;10108;50.142;8.724;2023-06-10T07:39:39;14.27;;;9.77;;
19891;SDS011;10108;50.142;8.724;2023-06-10T07:42:06;13.63;;;9.88;;
19891;SDS011;10108;50.142;8.724;2023-06-10T07:44:32;13.60;;;9.63;;
19891;SDS011;10108;50.142;8.724;2023-06-10T07:46:58;13.85;;;9.88;;
19891;SDS011;10108;50.142;8.724;2023-06-10T07:49:25;13.35;;;9.68;;
19891;SDS011;10108;50.142;8.724;2023-06-10T07:51:53;15.00;;;10.48;;
19891;SDS011;10108;50.142;8.724;2023-06-10T07:54:21;13.88;;;9.60;;
19891;SDS011;10108;50.142;8.724;2023-06-10T07:56:47;15.18;;;10.05;;
19891;SDS011;10108;50.142;8.724;2023-06-10T07:59:13;13.40;;;9.57;;
19891;SDS011;10108;50.142;8.724;2023-06-10T08:01:39;15.57;;;10.60;;
19891;SDS011;10108;50.142;8.724;2023-06-10T08:04:06;13.68;;;9.63;;
19891;SDS011;10108;50.142;8.724;2023-06-10T08:06:33;16.02;;;9.93;;
19891;SDS011;10108;50.142;8.724;2023-06-10T08:08:59;13.52;;;10.02;;
19891;SDS011;10108;50.142;8.724;2023-06-10T08:11:25;16.63;;;10.18;;
19891;SDS011;10108;50.142;8.724;2023-06-10T08:13:54;16.33;;;9.68;;
19891;SDS011;10108;50.142;8.724;2023-06-10T08:16:20;14.50;;;9.63;;
19891;SDS011;10108;50.142;8.724;2023-06-10T08:18:46;14.57;;;10.00;;
19891;SDS011;10108;50.142;8.724;2023-06-10T08:21:12;13.18;;;10.07;;
19891;SDS011;10108;50.142;8.724;2023-06-10T08:23:38;13.27;;;9.88;;
19891;SDS011;10108;50.142;8.724;2023-06-10T08:26:05;17.20;;;10.55;;
19891;SDS011;10108;50.142;8.724;2023-06-10T08:28:31;13.43;;;10.20;;
19891;SDS011;10108;50.142;8.724;2023-06-10T08:30:57;15.15;;;10.13;;
19891;SDS011;10108;50.142;8.724;2023-06-10T08:33:23;15.10;;;10.15;;
19891;SDS011;10108;50.142;8.724;2023-06-10T08:35:50;14.45;;;10.40;;
19891;SDS011;10108;50.142;8.724;2023-06-10T08:38:16;14.45;;;10.10;;
19891;SDS011;10108;50.142;8.724;2023-06-10T08:40:42;14.80;;;10.52;;
19891;SDS011;10108;50.142;8.724;2023-06-10T08:43:10;14.15;;;9.82;;
19891;SDS011;10108;50.142;8.724;2023-06-10T08:45:58;13.95;;;10.02;;
19891;SDS011;10108;50.142;8.724;2023-06-10T08:48:26;16.33;;;9.70;;
19891;SDS011;10108;50.142;8.724;2023-06-10T08:50:56;15.23;;;10.20;;
19891;SDS011;10108;50.142;8.724;2023-06-10T08:53:24;13.02;;;10.50;;
19891;SDS011;10108;50.142;8.724;2023-06-10T08:55:52;13.23;;;9.80;;
19891;SDS011;10108;50.142;8.724;2023-06-10T08:58:21;13.48;;;9.45;;
19891;SDS011;10108;50.142;8.724;2023-06-10T09:00:47;13.73;;;9.75;;
19891;SDS011;10108;50.142;8.724;2023-06-10T09:03:14;14.38;;;9.95;;
19891;SDS011;10108;50.142;8.724;2023-06-10T09:05:41;14.50;;;10.30;;
19891;SDS011;10108;50.142;8.724;2023-06-10T09:08:07;12.60;;;9.57;;
19891;SDS011;10108;50.142;8.724;2023-06-10T09:10:34;15.85;;;10.00;;
19891;SDS011;10108;50.142;8.724;2023-06-10T09:13:01;12.48;;;9.90;;
19891;SDS011;10108;50.142;8.724;2023-06-10T09:15:27;14.85;;;10.52;;
19891;SDS011;10108;50.142;8.724;2023-06-10T09:17:53;13.93;;;10.20;;
19891;SDS011;10108;50.142;8.724;2023-06-10T09:20:20;13.18;;;10.27;;
19891;SDS011;10108;50.142;8.724;2023-06-10T09:22:46;14.25;;;9.93;;
19891;SDS011;10108;50.142;8.724;2023-06-10T09:25:12;12.95;;;9.60;;
19891;SDS011;10108;50.142;8.724;2023-06-10T09:30:28;12.55;;;10.18;;
19891;SDS011;10108;50.142;8.724;2023-06-10T09:32:56;16.15;;;10.55;;
19891;SDS011;10108;50.142;8.724;2023-06-10T09:35:27;14.68;;;10.68;;
19891;SDS011;10108;50.142;8.724;2023-06-10T09:37:57;14.55;;;10.18;;
19891;SDS011;10108;50.142;8.724;2023-06-10T09:40:24;12.00;;;10.10;;
19891;SDS011;10108;50.142;8.724;2023-06-10T09:42:55;13.50;;;10.45;;
19891;SDS011;10108;50.142;8.724;2023-06-10T09:45:22;16.10;;;9.90;;
19891;SDS011;10108;50.142;8.724;2023-06-10T09:47:55;11.93;;;9.45;;
19891;SDS011;10108;50.142;8.724;2023-06-10T09:50:21;13.10;;;10.13;;
19891;SDS011;10108;50.142;8.724;2023-06-10T09:52:47;12.38;;;9.82;;
19891;SDS011;10108;50.142;8.724;2023-06-10T09:55:14;15.00;;;10.30;;
19891;SDS011;10108;50.142;8.724;2023-06-10T09:57:40;13.13;;;9.65;;
19891;SDS011;10108;50.142;8.724;2023-06-10T10:00:10;12.27;;;9.77;;
19891;SDS011;10108;50.142;8.724;2023-06-10T10:02:50;13.02;;;9.23;;
19891;SDS011;10108;50.142;8.724;2023-06-10T10:05:17;12.10;;;9.98;;
19891;SDS011;10108;50.142;8.724;2023-06-10T10:07:45;14.25;;;9.95;;
19891;SDS011;10108;50.142;8.724;2023-06-10T10:10:13;14.38;;;9.48;;
19891;SDS011;10108;50.142;8.724;2023-06-10T10:12:40;15.55;;;9.32;;
19891;SDS011;10108;50.142;8.724;2023-06-10T10:15:07;13.82;;;9.75;;
19891;SDS011;10108;50.142;8.724;2023-06-10T10:17:46;13.05;;;9.35;;
19891;SDS011;10108;50.142;8.724;2023-06-10T10:20:27;13.93;;;10.15;;
19891;SDS011;10108;50.142;8.724;2023-06-10T10:22:57;14.98;;;9.65;;
19891;SDS011;10108;50.142;8.724;2023-06-10T10:25:28;12.65;;;9.23;;
19891;SDS011;10108;50.142;8.724;2023-06-10T10:28:08;13.25;;;9.60;;
19891;SDS011;10108;50.142;8.724;2023-06-10T10:30:42;16.90;;;9.77;;
19891;SDS011;10108;50.142;8.724;2023-06-10T10:33:22;13.15;;;10.02;;
19891;SDS011;10108;50.142;8.724;2023-06-10T10:35:56;16.58;;;9.73;;
19891;SDS011;10108;50.142;8.724;2023-06-10T10:38:24;13.07;;;9.20;;
19891;SDS011;10108;50.142;8.724;2023-06-10T10:40:50;11.38;;;8.95;;
19891;SDS011;10108;50.142;8.724;2023-06-10T10:43:17;12.15;;;9.38;;
19891;SDS011;10108;50.142;8.724;2023-06-10T10:45:46;13.23;;;9.10;;
19891;SDS011;10108;50.142;8.724;2023-06-10T10:48:24;14.73;;;9.30;;
19891;SDS011;10108;50.142;8.724;2023-06-10T10:50:58;15.32;;;9.55;;
19891;SDS011;10108;50.142;8.724;2023-06-10T10:53:24;11.32;;;8.80;;
19891;SDS011;10108;50.142;8.724;2023-06-10T10:55:59;11.07;;;8.82;;
19891;SDS011;10108;50.142;8.724;2023-06-10T10:58:33;11.93;;;8.75;;
19891;SDS011;10108;50.142;8.724;2023-06-10T11:01:00;10.93;;;8.75;;
19891;SDS011;10108;50.142;8.724;2023-06-10T11:03:41;12.07;;;8.90;;
19891;SDS011;10108;50.142;8.724;2023-06-10T11:06:14;11.48;;;8.70;;
19891;SDS011;10108;50.142;8.724;2023-06-10T11:16:28;11.75;;;8.27;;
19891;SDS011;10108;50.142;8.724;2023-06-10T11:18:55;11.35;;;8.40;;
19891;SDS011;10108;50.142;8.724;2023-06-10T11:21:25;11.25;;;8.30;;
19891;SDS011;10108;50.142;8.724;2023-06-10T11:23:51;14.20;;;9.48;;
19891;SDS011;10108;50.142;8.724;2023-06-10T11:31:18;14.52;;;8.65;;
19891;SDS011;10108;50.142;8.724;2023-06-10T11:33:46;13.13;;;9.02;;
19891;SDS011;10108;50.142;8.724;2023-06-10T11:36:14;11.90;;;9.05;;
19891;SDS011;10108;50.142;8.724;2023-06-10T11:38:40;13.77;;;8.52;;
19891;SDS011;10108;50.142;8.724;2023-06-10T11:41:07;10.85;;;9.00;;
19891;SDS011;10108;50.142;8.724;2023-06-10T11:43:34;12.43;;;8.50;;
19891;SDS011;10108;50.142;8.724;2023-06-10T11:46:00;11.13;;;8.93;;
19891;SDS011;10108;50.142;8.724;2023-06-10T11:48:27;14.07;;;9.48;;
19891;SDS011;10108;50.142;8.724;2023-06-10T11:50:56;10.75;;;8.35;;
19891;SDS011;10108;50.142;8.724;2023-06-10T11:53:23;11.45;;;9.00;;
19891;SDS011;10108;50.142;8.724;2023-06-10T11:55:50;11.13;;;8.80;;
19891;SDS011;10108;50.142;8.724;2023-06-10T11:58:20;11.75;;;8.48;;
19891;SDS011;10108;50.142;8.724;2023-06-10T12:00:51;12.82;;;9.07;;
19891;SDS011;10108;50.142;8.724;2023-06-10T12:03:23;12.43;;;8.98;;
19891;SDS011;10108;50.142;8.724;2023-06-10T12:08:24;11.48;;;8.20;;
19891;SDS011;10108;50.142;8.724;2023-06-10T12:10:51;12.25;;;9.25;;
19891;SDS011;10108;50.142;8.724;2023-06-10T12:13:17;12.05;;;8.57;;
19891;SDS011;10108;50.142;8.724;2023-06-10T12:15:44;13.45;;;8.80;;
19891;SDS011;10108;50.142;8.724;2023-06-10T12:18:17;10.48;;;8.57;;
19891;SDS011;10108;50.142;8.724;2023-06-10T12:20:49;11.80;;;8.50;;
19891;SDS011;10108;50.142;8.724;2023-06-10T12:23:17;14.20;;;8.52;;
19891;SDS011;10108;50.142;8.724;2023-06-10T12:25:50;15.70;;;9.00;;
19891;SDS011;10108;50.142;8.724;2023-06-10T12:28:25;10.80;;;8.82;;
19891;SDS011;10108;50.142;8.724;2023-06-10T12:30:52;10.50;;;8.73;;
19891;SDS011;10108;50.142;8.724;2023-06-10T12:33:33;12.82;;;9.18;;
19891;SDS011;10108;50.142;8.724;2023-06-10T12:35:59;10.75;;;8.88;;
19891;SDS011;10108;50.142;8.724;2023-06-10T12:38:25;11.15;;;9.10;;
19891;SDS011;10108;50.142;8.724;2023-06-10T12:41:00;12.63;;;8.77;;
19891;SDS011;10108;50.142;8.724;2023-06-10T12:43:30;11.43;;;8.55;;
19891;SDS011;10108;50.142;8.724;2023-06-10T12:46:07;10.85;;;8.20;;
19891;SDS011;10108;50.142;8.724;2023-06-10T12:48:35;10.70;;;8.45;;
19891;SDS011;10108;50.142;8.724;2023-06-10T12:51:01;11.05;;;8.77;;
19891;SDS011;10108;50.142;8.724;2023-06-10T12:53:27;10.85;;;8.40;;
19891;SDS011;10108;50.142;8.724;2023-06-10T12:55:53;10.75;;;8.30;;
19891;SDS011;10108;50.142;8.724;2023-06-10T12:58:20;11.30;;;8.65;;
19891;SDS011;10108;50.142;8.724;2023-06-10T13:00:47;11.75;;;9.02;;
19891;SDS011;10108;50.142;8.724;2023-06-10T13:03:14;13.30;;;9.38;;
19891;SDS011;10108;50.142;8.724;2023-06-10T13:05:40;15.90;;;8.68;;
19891;SDS011;10108;50.142;8.724;2023-06-10T13:08:09;11.75;;;8.23;;
19891;SDS011;10108;50.142;8.724;2023-06-10T13:10:36;10.73;;;8.73;;
19891;SDS011;10108;50.142;8.724;2023-06-10T13:13:02;11.23;;;8.48;;
19891;SDS011;10108;50.142;8.724;2023-06-10T13:15:31;10.30;;;8.07;;
19891;SDS011;10108;50.142;8.724;2023-06-10T13:18:02;12.10;;;9.32;;
19891;SDS011;10108;50.142;8.724;2023-06-10T13:20:29;13.07;;;8.35;;
19891;SDS011;10108;50.142;8.724;2023-06-10T13:22:55;13.65;;;8.68;;
19891;SDS011;10108;50.142;8.724;2023-06-10T13:25:21;11.27;;;8.75;;
19891;SDS011;10108;50.142;8.724;2023-06-10T13:27:48;12.68;;;9.38;;
19891;SDS011;10108;50.142;8.724;2023-06-10T13:30:14;10.32;;;8.23;;
19891;SDS011;10108;50.142;8.724;2023-06-10T13:32:41;11.52;;;8.98;;
19891;SDS011;10108;50.142;8.724;2023-06-10T13:35:07;12.75;;;9.30;;
19891;SDS011;10108;50.142;8.724;2023-06-10T13:37:33;12.00;;;9.25;;
19891;SDS011;10108;50.142;8.724;2023-06-10T13:40:00;12.10;;;8.65;;
19891;SDS011;10108;50.142;8.724;2023-06-10T13:42:26;11.95;;;8.43;;
19891;SDS011;10108;50.142;8.724;2023-06-10T13:44:54;11.07;;;8.73;;
19891;SDS011;10108;50.142;8.724;2023-06-10T13:47:22;12.48;;;7.80;;
19891;SDS011;10108;50.142;8.724;2023-06-10T13:49:48;11.43;;;8.40;;
19891;SDS011;10108;50.142;8.724;2023-06-10T13:52:14;12.02;;;8.77;;
19891;SDS011;10108;50.142;8.724;2023-06-10T13:54:40;10.25;;;7.78;;
19891;SDS011;10108;50.142;8.724;2023-06-10T13:57:06;9.52;;;7.85;;
19891;SDS011;10108;50.142;8.724;2023-06-10T13:59:35;9.38;;;7.38;;
19891;SDS011;10108;50.142;8.724;2023-06-10T14:02:01;9.68;;;7.43;;
19891;SDS011;10108;50.142;8.724;2023-06-10T14:04:27;10.52;;;7.82;;
19891;SDS011;10108;50.142;8.724;2023-06-10T14:06:53;9.82;;;7.18;;
19891;SDS011;10108;50.142;8.724;2023-06-10T14:09:20;9.75;;;7.57;;
19891;SDS011;10108;50.142;8.724;2023-06-10T14:11:46;9.43;;;7.50;;
19891;SDS011;10108;50.142;8.724;2023-06-10T14:14:13;9.95;;;7.45;;
19891;SDS011;10108;50.142;8.724;2023-06-10T14:16:39;9.57;;;7.78;;
19891;SDS011;10108;50.142;8.724;2023-06-10T14:19:06;9.63;;;7.43;;
19891;SDS011;10108;50.142;8.724;2023-06-10T14:21:32;9.60;;;7.50;;
19891;SDS011;10108;50.142;8.724;2023-06-10T14:23:58;11.68;;;7.85;;
19891;SDS011;10108;50.142;8.724;2023-06-10T14:26:24;9.77;;;7.57;;
19891;SDS011;10108;50.142;8.724;2023-06-10T14:28:51;9.90;;;7.88;;
19891;SDS011;10108;50.142;8.724;2023-06-10T14:31:18;12.02;;;7.90;;
19891;SDS011;10108;50.142;8.724;2023-06-10T14:33:44;10.65;;;7.30;;
19891;SDS011;10108;50.142;8.724;2023-06-10T14:36:10;11.77;;;7.90;;
19891;SDS011;10108;50.142;8.724;2023-06-10T14:38:37;9.43;;;7.13;;
19891;SDS011;10108;50.142;8.724;2023-06-10T14:41:03;11.40;;;7.88;;
19891;SDS011;10108;50.142;8.724;2023-06-10T14:43:29;10.25;;;7.47;;
19891;SDS011;10108;50.142;8.724;2023-06-10T14:45:55;9.70;;;7.28;;
19891;SDS011;10108;50.142;8.724;2023-06-10T14:48:21;9.85;;;7.15;;
19891;SDS011;10108;50.142;8.724;2023-06-10T14:50:47;12.57;;;7.18;;
19891;SDS011;10108;50.142;8.724;2023-06-10T14:53:17;8.75;;;6.82;;